createdAt,value
2023-02-09T00:01:40.845Z,21.65
2023-02-09T00:04:13.333Z,20.13
2023-02-09T00:06:41.598Z,20.90
2023-02-09T00:09:11.371Z,21.80
2023-02-09T00:11:57.155Z,22.73
2023-02-09T00:14:25.863Z,22.55
2023-02-09T00:16:55.025Z,22.52
2023-02-09T00:19:23.534Z,21.58
2023-02-09T00:21:51.756Z,22.95
2023-02-09T00:24:21.411Z,23.63
2023-02-09T00:26:49.823Z,23.92
2023-02-09T00:29:22.334Z,18.77
2023-02-09T00:31:51.582Z,17.45
2023-02-09T00:34:20.627Z,21.85
2023-02-09T00:36:48.847Z,24.92
2023-02-09T00:39:17.241Z,21.08
2023-02-09T00:42:04.564Z,21.98
2023-02-09T00:44:33.292Z,21.33
2023-02-09T00:47:02.196Z,25.30
2023-02-09T00:49:31.255Z,22.23
2023-02-09T00:51:59.653Z,19.23
2023-02-09T00:54:28.050Z,24.40
2023-02-09T00:56:58.672Z,19.60
2023-02-09T00:59:27.865Z,20.25
2023-02-09T01:01:56.056Z,18.35
2023-02-09T01:04:24.566Z,18.10
2023-02-09T01:06:52.800Z,17.70
2023-02-09T01:09:21.010Z,17.88
2023-02-09T01:11:49.300Z,19.15
2023-02-09T01:14:19.384Z,21.23
2023-02-09T01:16:47.783Z,20.92
2023-02-09T01:19:16.156Z,19.23
2023-02-09T01:21:44.596Z,19.25
2023-02-09T01:24:15.637Z,20.40
2023-02-09T01:26:44.287Z,21.70
2023-02-09T01:29:15.490Z,20.75
2023-02-09T01:31:46.118Z,18.98
2023-02-09T01:34:17.298Z,19.45
2023-02-09T01:36:46.988Z,20.38
2023-02-09T01:39:15.830Z,19.73
2023-02-09T01:41:45.249Z,19.38
2023-02-09T01:45:03.158Z,20.35
2023-02-09T01:47:36.994Z,21.48
2023-02-09T01:50:05.920Z,21.98
2023-02-09T01:52:34.395Z,19.05
2023-02-09T01:55:06.857Z,20.80
2023-02-09T01:57:39.360Z,19.27
2023-02-09T02:00:12.996Z,20.80
2023-02-09T02:02:44.380Z,19.35
2023-02-09T02:05:13.249Z,20.58
2023-02-09T02:07:46.197Z,18.70
2023-02-09T02:10:14.893Z,19.83
2023-02-09T02:12:43.654Z,22.08
2023-02-09T02:15:13.546Z,19.10
2023-02-09T02:18:07.310Z,23.25
2023-02-09T02:21:41.204Z,25.17
2023-02-09T02:24:36.802Z,22.50
2023-02-09T02:27:06.438Z,19.10
2023-02-09T02:30:13.559Z,24.48
2023-02-09T02:33:08.347Z,21.17
2023-02-09T02:35:40.844Z,19.95
2023-02-09T02:38:18.902Z,23.98
2023-02-09T02:40:57.925Z,20.92
2023-02-09T02:43:44.668Z,18.63
2023-02-09T02:46:21.168Z,22.60
2023-02-09T02:49:00.466Z,23.40
2023-02-09T02:51:33.157Z,19.52
2023-02-09T02:54:05.788Z,19.33
2023-02-09T02:56:39.622Z,19.33
2023-02-09T02:59:12.528Z,21.55
2023-02-09T03:01:45.101Z,22.05
2023-02-09T03:04:16.712Z,20.85
2023-02-09T03:06:44.974Z,22.00
2023-02-09T03:09:13.190Z,20.67
2023-02-09T03:11:45.976Z,19.95
2023-02-09T03:14:28.812Z,17.35
2023-02-09T03:17:09.654Z,18.85
2023-02-09T03:19:47.887Z,20.35
2023-02-09T03:22:25.592Z,18.83
2023-02-09T03:24:59.749Z,21.75
2023-02-09T03:27:33.299Z,19.25
2023-02-09T03:30:06.128Z,20.83
2023-02-09T03:32:39.068Z,19.40
2023-02-09T03:35:11.692Z,21.30
2023-02-09T03:37:40.008Z,18.40
2023-02-09T03:40:08.985Z,18.83
2023-02-09T03:42:37.428Z,23.20
2023-02-09T03:45:08.003Z,19.00
2023-02-09T03:47:36.331Z,20.33
2023-02-09T03:50:06.771Z,19.17
2023-02-09T03:52:36.506Z,20.38
2023-02-09T03:55:05.430Z,18.80
2023-02-09T03:57:33.647Z,19.70
2023-02-09T04:00:03.475Z,18.40
2023-02-09T04:02:31.788Z,20.50
2023-02-09T04:05:00.005Z,18.02
2023-02-09T04:07:28.523Z,21.38
2023-02-09T04:09:58.108Z,17.42
2023-02-09T04:12:26.489Z,18.88
2023-02-09T04:14:54.721Z,14.70
2023-02-09T04:17:28.727Z,18.38
2023-02-09T04:19:59.727Z,15.45
2023-02-09T04:22:28.437Z,17.42
2023-02-09T04:24:58.035Z,19.30
2023-02-09T04:27:27.159Z,17.02
2023-02-09T04:29:57.921Z,17.08
2023-02-09T04:32:26.102Z,19.77
2023-02-09T04:34:56.241Z,17.42
2023-02-09T04:37:24.568Z,19.38
2023-02-09T04:39:52.836Z,16.58
2023-02-09T04:42:22.468Z,14.48
2023-02-09T04:44:50.987Z,15.77
2023-02-09T04:47:19.596Z,20.35
2023-02-09T04:49:47.912Z,16.67
2023-02-09T04:52:16.439Z,18.55
2023-02-09T04:54:44.770Z,18.42
2023-02-09T04:57:30.201Z,20.55
2023-02-09T04:59:59.806Z,20.33
2023-02-09T05:02:28.032Z,14.27
2023-02-09T05:04:56.728Z,17.50
2023-02-09T05:07:26.544Z,17.45
2023-02-09T05:09:54.765Z,17.77
2023-02-09T05:12:23.135Z,17.65
2023-02-09T05:14:51.406Z,18.35
2023-02-09T05:17:21.260Z,13.68
2023-02-09T05:19:49.923Z,16.67
2023-02-09T05:22:18.150Z,17.20
2023-02-09T05:24:46.342Z,17.10
2023-02-09T05:27:14.564Z,16.40
2023-02-09T05:29:42.868Z,18.15
2023-02-09T05:32:11.210Z,18.13
2023-02-09T05:34:40.856Z,15.75
2023-02-09T05:37:09.549Z,22.15
2023-02-09T05:39:37.795Z,17.48
2023-02-09T05:42:18.507Z,15.52
2023-02-09T05:44:48.701Z,17.95
2023-02-09T05:47:19.610Z,17.92
2023-02-09T05:49:49.300Z,16.27
2023-02-09T05:52:18.148Z,16.50
2023-02-09T05:54:48.878Z,19.38
2023-02-09T05:57:18.308Z,15.48
2023-02-09T05:59:46.589Z,16.23
2023-02-09T06:02:15.284Z,19.55
2023-02-09T06:04:43.719Z,18.70
2023-02-09T06:07:13.426Z,16.27
2023-02-09T06:09:41.611Z,19.08
2023-02-09T06:12:10.125Z,17.65
2023-02-09T06:14:38.390Z,17.15
2023-02-09T06:17:06.989Z,20.20
2023-02-09T06:19:35.283Z,16.20
2023-02-09T06:22:03.609Z,16.92
2023-02-09T06:24:33.498Z,19.38
2023-02-09T06:27:01.781Z,20.52
2023-02-09T06:29:30.028Z,20.02
2023-02-09T06:31:58.509Z,16.88
2023-02-09T06:34:26.945Z,18.73
2023-02-09T06:36:57.163Z,18.92
2023-02-09T06:39:26.360Z,17.08
2023-02-09T06:41:56.156Z,20.20
2023-02-09T06:44:24.504Z,20.17
2023-02-09T06:46:52.812Z,18.67
2023-02-09T06:49:23.813Z,17.35
2023-02-09T06:51:52.309Z,25.30
2023-02-09T06:54:21.457Z,20.55
2023-02-09T06:56:49.869Z,18.83
2023-02-09T06:59:20.188Z,18.58
2023-02-09T07:01:54.446Z,23.85
2023-02-09T07:04:24.253Z,20.95
2023-02-09T07:06:52.495Z,18.38
2023-02-09T07:09:20.946Z,25.05
2023-02-09T07:11:49.286Z,22.23
2023-02-09T07:14:19.350Z,18.48
2023-02-09T07:16:47.668Z,17.08
2023-02-09T07:19:15.950Z,24.80
2023-02-09T07:21:44.205Z,18.52
2023-02-09T07:24:15.798Z,19.35
2023-02-09T07:26:43.993Z,17.60
2023-02-09T07:29:15.189Z,19.20
2023-02-09T07:31:45.555Z,17.48
2023-02-09T07:34:14.031Z,16.77
2023-02-09T07:36:42.234Z,27.40
2023-02-09T07:39:12.358Z,25.25
2023-02-09T07:41:40.882Z,21.38
2023-02-09T07:44:12.770Z,18.48
2023-02-09T07:46:41.304Z,18.42
2023-02-09T07:49:11.656Z,19.55
2023-02-09T07:51:40.960Z,20.23
2023-02-09T07:54:09.659Z,21.75
2023-02-09T07:56:38.024Z,17.27
2023-02-09T07:59:06.774Z,19.42
2023-02-09T08:01:35.684Z,27.58
2023-02-09T08:04:05.519Z,26.30
2023-02-09T08:06:42.866Z,24.00
2023-02-09T08:09:16.603Z,24.75
2023-02-09T08:11:50.158Z,24.08
2023-02-09T08:14:22.393Z,24.00
2023-02-09T08:17:12.885Z,22.27
2023-02-09T08:19:41.792Z,21.33
2023-02-09T08:22:14.172Z,25.35
2023-02-09T08:24:42.719Z,21.65
2023-02-09T08:27:14.830Z,31.63
2023-02-09T08:29:43.289Z,44.03
2023-02-09T08:32:14.362Z,27.00
2023-02-09T08:34:42.637Z,20.02
2023-02-09T08:37:14.967Z,19.30
2023-02-09T08:39:43.260Z,18.58
2023-02-09T08:42:14.202Z,27.98
2023-02-09T08:44:42.462Z,20.92
2023-02-09T08:47:10.852Z,19.55
2023-02-09T08:49:39.545Z,21.50
2023-02-09T08:52:08.283Z,19.63
2023-02-09T08:54:38.652Z,21.00
2023-02-09T08:57:07.233Z,17.77
2023-02-09T08:59:35.540Z,18.35
2023-02-09T09:02:03.873Z,19.30
2023-02-09T09:04:32.561Z,21.38
2023-02-09T09:07:01.028Z,23.17
2023-02-09T09:09:29.485Z,22.20
2023-02-09T09:11:59.182Z,22.30
2023-02-09T09:14:28.097Z,19.98
2023-02-09T09:16:59.291Z,18.25
2023-02-09T09:19:28.601Z,19.73
2023-02-09T09:22:00.749Z,20.35
2023-02-09T09:24:29.198Z,20.33
2023-02-09T09:26:59.655Z,21.70
2023-02-09T09:29:28.440Z,23.35
2023-02-09T09:31:59.398Z,21.98
2023-02-09T09:34:27.990Z,24.48
2023-02-09T09:36:59.180Z,19.60
2023-02-09T09:39:28.079Z,21.55
2023-02-09T09:42:00.749Z,20.80
2023-02-09T09:44:34.841Z,20.75
2023-02-09T09:47:10.050Z,22.98
2023-02-09T09:49:39.482Z,22.17
2023-02-09T09:52:14.982Z,23.10
2023-02-09T09:54:45.238Z,23.95
2023-02-09T09:57:22.836Z,21.33
2023-02-09T09:59:51.495Z,26.13
2023-02-09T10:02:28.271Z,21.23
2023-02-09T10:05:02.506Z,24.05
2023-02-09T10:07:34.096Z,22.98
2023-02-09T10:10:07.337Z,23.77
2023-02-09T10:12:40.724Z,26.33
2023-02-09T10:15:30.461Z,19.17
2023-02-09T10:18:00.482Z,23.73
2023-02-09T10:20:46.691Z,20.42
2023-02-09T10:23:21.995Z,24.33
2023-02-09T10:26:05.613Z,28.50
2023-02-09T10:28:41.442Z,23.90
2023-02-09T10:31:18.854Z,24.27
2023-02-09T10:33:52.337Z,20.92
2023-02-09T10:36:28.704Z,23.27
2023-02-09T10:39:14.187Z,24.98
2023-02-09T10:41:47.205Z,24.05
2023-02-09T10:44:21.986Z,24.02
2023-02-09T10:46:50.760Z,27.85
2023-02-09T10:49:31.793Z,22.52
2023-02-09T10:52:12.185Z,25.50
2023-02-09T10:54:43.744Z,23.08
2023-02-09T10:57:31.033Z,29.80
2023-02-09T11:00:03.399Z,25.55
2023-02-09T11:02:41.294Z,25.27
2023-02-09T11:05:32.514Z,22.95
2023-02-09T11:08:14.472Z,24.08
2023-02-09T11:10:52.169Z,24.05
2023-02-09T11:13:25.010Z,26.67
2023-02-09T11:16:59.305Z,24.10
2023-02-09T11:19:56.757Z,28.65
2023-02-09T11:22:45.130Z,28.30
2023-02-09T11:25:24.081Z,26.85
2023-02-09T11:28:20.083Z,29.38
2023-02-09T11:31:15.200Z,27.70
2023-02-09T11:33:56.675Z,25.20
2023-02-09T11:36:42.711Z,29.33
2023-02-09T11:39:20.662Z,28.88
2023-02-09T11:42:16.176Z,26.23
2023-02-09T11:44:53.759Z,29.65
2023-02-09T11:47:38.481Z,28.45
2023-02-09T11:50:12.696Z,28.80
2023-02-09T11:52:48.690Z,30.85
2023-02-09T11:55:28.556Z,28.70
2023-02-09T11:58:13.841Z,30.45
2023-02-09T12:00:59.654Z,28.90
2023-02-09T12:03:33.834Z,25.80
2023-02-09T12:06:02.703Z,30.02
2023-02-09T12:08:42.844Z,30.83
2023-02-09T12:11:36.685Z,31.92
2023-02-09T12:14:25.116Z,31.25
2023-02-09T12:17:01.767Z,31.50
2023-02-09T12:19:37.151Z,31.02
2023-02-09T12:23:02.355Z,28.98
2023-02-09T12:25:51.098Z,30.13
2023-02-09T12:28:42.246Z,27.88
2023-02-09T12:31:22.438Z,31.13
2023-02-09T12:34:22.763Z,30.05
2023-02-09T12:37:28.101Z,31.65
2023-02-09T12:40:25.490Z,36.33
2023-02-09T12:43:27.299Z,30.67
2023-02-09T12:46:31.234Z,33.05
2023-02-09T12:49:20.027Z,31.25
2023-02-09T12:52:14.054Z,32.60
2023-02-09T12:54:48.643Z,37.05
2023-02-09T12:57:56.863Z,31.15
2023-02-09T13:00:42.902Z,31.55
2023-02-09T13:03:16.579Z,36.35
2023-02-09T13:05:46.241Z,38.13
2023-02-09T13:08:23.258Z,33.83
2023-02-09T13:11:00.785Z,34.72
2023-02-09T13:13:38.870Z,36.70
2023-02-09T13:16:35.948Z,32.45
2023-02-09T13:19:18.373Z,32.42
2023-02-09T13:21:58.655Z,31.98
2023-02-09T13:24:37.042Z,32.17
2023-02-09T13:27:21.057Z,32.30
2023-02-09T13:29:51.185Z,37.30
2023-02-09T13:32:39.479Z,31.00
2023-02-09T13:35:20.428Z,38.40
2023-02-09T13:37:51.549Z,37.58
2023-02-09T13:40:27.136Z,30.73
2023-02-09T13:43:03.641Z,35.13
2023-02-09T13:45:32.428Z,35.90
2023-02-09T13:48:03.034Z,38.38
2023-02-09T13:50:33.446Z,34.33
2023-02-09T13:53:13.325Z,38.70
2023-02-09T13:55:58.719Z,35.80
2023-02-09T13:58:31.666Z,35.25
2023-02-09T14:01:07.964Z,33.60
2023-02-09T14:03:56.657Z,37.03
2023-02-09T14:06:36.546Z,41.10
2023-02-09T14:09:07.550Z,36.35
2023-02-09T14:11:43.554Z,35.67
2023-02-09T14:14:20.978Z,35.67
2023-02-09T14:16:53.781Z,35.08
2023-02-09T14:19:28.677Z,34.58
2023-02-09T14:21:59.984Z,36.50
2023-02-09T14:24:30.288Z,34.08
2023-02-09T14:27:05.025Z,35.28
2023-02-09T14:29:38.127Z,36.60
2023-02-09T14:32:32.482Z,36.53
2023-02-09T14:35:12.986Z,35.08
2023-02-09T14:37:42.382Z,39.92
2023-02-09T14:40:25.017Z,33.15
2023-02-09T14:43:18.779Z,35.55
2023-02-09T14:45:59.622Z,39.97
2023-02-09T14:48:29.822Z,38.35
2023-02-09T14:51:01.313Z,39.80
2023-02-09T14:53:33.482Z,39.58
2023-02-09T14:56:01.705Z,38.38
2023-02-09T14:58:32.633Z,37.47
2023-02-09T15:01:04.633Z,37.60
2023-02-09T15:03:33.015Z,47.10
2023-02-09T15:06:04.019Z,39.35
2023-02-09T15:08:37.014Z,41.03
2023-02-09T15:11:28.464Z,42.65
2023-02-09T15:14:01.612Z,42.40
2023-02-09T15:16:33.511Z,37.92
2023-02-09T15:19:04.846Z,40.92
2023-02-09T15:21:33.241Z,42.20
2023-02-09T15:24:01.505Z,41.53
2023-02-09T15:26:30.177Z,42.03
2023-02-09T15:28:58.887Z,39.70
2023-02-09T15:31:28.722Z,40.38
2023-02-09T15:33:58.908Z,39.13
2023-02-09T15:36:28.700Z,43.70
2023-02-09T15:38:57.732Z,42.65
2023-02-09T15:41:43.639Z,41.10
2023-02-09T15:44:35.951Z,38.53
2023-02-09T15:47:22.710Z,41.30
2023-02-09T15:49:52.380Z,43.00
2023-02-09T15:52:21.200Z,41.60
2023-02-09T15:54:51.527Z,45.10
2023-02-09T15:57:21.549Z,41.00
2023-02-09T15:59:51.730Z,45.20
2023-02-09T16:02:20.474Z,47.65
2023-02-09T16:04:49.183Z,43.00
2023-02-09T16:07:24.577Z,38.45
2023-02-09T16:09:53.455Z,45.25
2023-02-09T16:12:21.875Z,42.03
2023-02-09T16:14:52.888Z,45.20
2023-02-09T16:17:21.679Z,43.97
2023-02-09T16:19:50.078Z,42.08
2023-02-09T16:22:23.436Z,42.47
2023-02-09T16:24:56.764Z,41.50
2023-02-09T16:27:28.579Z,42.17
2023-02-09T16:29:58.029Z,42.17
2023-02-09T16:32:28.544Z,42.92
2023-02-09T16:35:04.655Z,44.90
2023-02-09T16:37:41.596Z,48.47
2023-02-09T16:40:26.574Z,45.00
2023-02-09T16:42:55.901Z,44.85
2023-02-09T16:45:25.023Z,48.65
2023-02-09T16:47:59.187Z,42.45
2023-02-09T16:50:32.973Z,43.45
2023-02-09T16:53:15.913Z,47.85
2023-02-09T16:55:48.089Z,50.13
2023-02-09T16:58:18.436Z,44.63
2023-02-09T17:00:47.027Z,42.58
2023-02-09T17:03:19.916Z,44.80
2023-02-09T17:05:52.071Z,44.55
2023-02-09T17:08:25.453Z,45.75
2023-02-09T17:10:56.395Z,45.13
2023-02-09T17:13:25.081Z,47.65
2023-02-09T17:15:56.598Z,47.38
2023-02-09T17:18:27.552Z,46.15
2023-02-09T17:21:01.769Z,52.33
2023-02-09T17:23:32.603Z,45.40
2023-02-09T17:26:01.367Z,48.67
2023-02-09T17:28:30.636Z,48.88
2023-02-09T17:31:02.097Z,51.33
2023-02-09T17:33:33.908Z,49.60
2023-02-09T17:36:25.222Z,50.47
2023-02-09T17:38:56.388Z,48.85
2023-02-09T17:41:33.364Z,52.72
2023-02-09T17:44:26.110Z,52.08
2023-02-09T17:47:00.433Z,50.33
2023-02-09T17:49:28.717Z,51.28
2023-02-09T17:51:59.634Z,53.40
2023-02-09T17:54:29.492Z,54.78
2023-02-09T17:56:58.093Z,55.05
2023-02-09T17:59:26.337Z,60.35
2023-02-09T18:01:58.942Z,51.53
2023-02-09T18:04:28.703Z,54.28
2023-02-09T18:06:58.294Z,57.28
2023-02-09T18:09:28.011Z,55.58
2023-02-09T18:12:02.525Z,58.63
2023-02-09T18:14:33.431Z,57.08
2023-02-09T18:17:03.715Z,54.30
2023-02-09T18:19:33.060Z,59.83
2023-02-09T18:22:03.840Z,54.50
2023-02-09T18:24:35.688Z,56.72
2023-02-09T18:27:04.223Z,62.20
2023-02-09T18:29:32.691Z,56.42
2023-02-09T18:32:03.594Z,56.25
2023-02-09T18:34:32.360Z,56.58
2023-02-09T18:37:00.850Z,53.40
2023-02-09T18:39:30.641Z,57.58
2023-02-09T18:42:00.956Z,52.25
2023-02-09T18:44:31.611Z,53.17
2023-02-09T18:47:02.172Z,53.65
2023-02-09T18:49:31.723Z,56.33
2023-02-09T18:52:00.836Z,56.55
2023-02-09T18:54:31.143Z,54.95
2023-02-09T18:57:01.102Z,53.40
2023-02-09T18:59:30.978Z,58.38
2023-02-09T19:02:00.068Z,61.95
2023-02-09T19:04:28.543Z,60.08
2023-02-09T19:06:57.266Z,63.00
2023-02-09T19:09:25.591Z,66.40
2023-02-09T19:11:53.876Z,63.22
2023-02-09T19:14:38.715Z,67.25
2023-02-09T19:17:11.033Z,60.65
2023-02-09T19:19:39.944Z,61.00
2023-02-09T19:22:26.073Z,62.70
2023-02-09T19:24:57.148Z,61.72
2023-02-09T19:27:26.892Z,62.60
2023-02-09T19:29:58.936Z,61.78
2023-02-09T19:32:28.069Z,61.92
2023-02-09T19:34:59.430Z,61.35
2023-02-09T19:37:30.107Z,76.50
2023-02-09T19:40:04.987Z,100.95
2023-02-09T19:42:34.506Z,80.22
2023-02-09T19:45:04.475Z,76.50
2023-02-09T19:47:32.815Z,70.78
2023-02-09T19:50:01.072Z,59.50
2023-02-09T19:52:29.999Z,66.28
2023-02-09T19:54:58.587Z,66.95
2023-02-09T19:57:26.997Z,62.08
2023-02-09T19:59:57.512Z,60.10
2023-02-09T20:02:27.617Z,67.07
2023-02-09T20:04:55.955Z,68.47
2023-02-09T20:07:24.529Z,62.58
2023-02-09T20:09:53.568Z,70.10
2023-02-09T20:12:22.858Z,61.08
2023-02-09T20:14:51.764Z,59.75
2023-02-09T20:17:20.443Z,67.38
2023-02-09T20:19:50.241Z,68.93
2023-02-09T20:22:18.782Z,68.00
2023-02-09T20:24:47.215Z,66.22
2023-02-09T20:27:15.615Z,61.53
2023-02-09T20:29:43.961Z,65.93
2023-02-09T20:32:15.384Z,66.97
2023-02-09T20:34:43.740Z,68.88
2023-02-09T20:37:14.112Z,68.03
2023-02-09T20:39:42.389Z,65.03
2023-02-09T20:42:28.287Z,64.00
2023-02-09T20:45:16.907Z,66.57
2023-02-09T20:47:45.268Z,64.57
2023-02-09T20:50:13.747Z,59.83
2023-02-09T20:52:45.633Z,65.63
2023-02-09T20:55:14.326Z,59.95
2023-02-09T20:57:42.645Z,62.67
2023-02-09T21:00:12.932Z,57.38
2023-02-09T21:02:41.271Z,59.95
2023-02-09T21:05:13.138Z,61.58
2023-02-09T21:07:42.823Z,64.15
2023-02-09T21:10:12.937Z,54.97
2023-02-09T21:12:41.384Z,66.85
2023-02-09T21:15:10.197Z,63.00
2023-02-09T21:17:43.731Z,60.08
2023-02-09T21:20:12.379Z,60.15
2023-02-09T21:22:42.013Z,61.25
2023-02-09T21:25:13.832Z,51.53
2023-02-09T21:27:42.164Z,66.00
2023-02-09T21:30:16.879Z,56.67
2023-02-09T21:32:45.245Z,59.30
2023-02-09T21:35:13.902Z,59.13
2023-02-09T21:37:44.590Z,58.22
2023-02-09T21:40:16.460Z,59.90
2023-02-09T21:42:45.043Z,61.60
2023-02-09T21:45:14.018Z,67.88
2023-02-09T21:47:42.393Z,60.67
2023-02-09T21:50:13.517Z,59.03
2023-02-09T21:52:59.416Z,62.65
2023-02-09T21:55:31.339Z,59.83
2023-02-09T21:58:01.933Z,64.93
2023-02-09T22:00:30.849Z,56.55
2023-02-09T22:02:59.135Z,59.03
2023-02-09T22:05:27.528Z,65.72
2023-02-09T22:07:57.373Z,55.22
2023-02-09T22:10:25.951Z,60.97
2023-02-09T22:12:56.582Z,56.10
2023-02-09T22:15:25.280Z,51.53
2023-02-09T22:17:53.497Z,60.63
2023-02-09T22:20:22.050Z,53.72
2023-02-09T22:22:50.395Z,55.22
2023-02-09T22:25:22.607Z,49.40
2023-02-09T22:27:50.860Z,50.17
2023-02-09T22:30:19.688Z,54.05
2023-02-09T22:32:47.881Z,55.30
2023-02-09T22:35:16.379Z,49.53
2023-02-09T22:37:44.659Z,56.22
2023-02-09T22:40:13.313Z,55.58
2023-02-09T22:42:43.198Z,49.40
2023-02-09T22:45:11.875Z,52.85
2023-02-09T22:47:40.348Z,52.90
2023-02-09T22:50:09.478Z,51.28
2023-02-09T22:52:37.710Z,54.22
2023-02-09T22:55:07.126Z,51.80
2023-02-09T22:57:35.421Z,47.92
2023-02-09T23:00:07.998Z,51.10
2023-02-09T23:02:36.310Z,51.33
2023-02-09T23:05:05.790Z,42.72
2023-02-09T23:07:34.161Z,51.42
2023-02-09T23:10:02.420Z,43.97
2023-02-09T23:12:30.709Z,46.83
2023-02-09T23:14:58.986Z,49.00
2023-02-09T23:17:28.787Z,49.90
2023-02-09T23:19:57.114Z,46.40
2023-02-09T23:22:25.648Z,42.10
2023-02-09T23:24:54.967Z,43.13
2023-02-09T23:27:23.370Z,48.60
2023-02-09T23:29:51.596Z,39.33
2023-02-09T23:32:21.167Z,53.42
2023-02-09T23:34:50.908Z,43.70
2023-02-09T23:37:36.767Z,47.70
2023-02-09T23:40:07.041Z,43.70
2023-02-09T23:42:35.635Z,46.53
2023-02-09T23:45:04.115Z,45.85
2023-02-09T23:47:32.352Z,43.47
2023-02-09T23:50:02.042Z,51.60
2023-02-09T23:52:30.698Z,40.17
2023-02-09T23:54:59.052Z,49.10
2023-02-09T23:57:27.769Z,47.22
2023-02-09T23:59:56.047Z,44.28
